Time;durP1;ratioP1;P1;durP2;ratioP2;P2;SDS_P1;SDS_P2;PMS_P1;PMS_P2;Temp;Humidity;BMP_temperature;BMP_pressure;BME280_temperature;BME280_humidity;BME280_pressure;Samples;Min_cycle;Max_cycle;Signal;HPM_P1;HPM_P2
2022/07/27 00:02:00;;;;;;;7.95;6.63;;;;;;;27.57;52.10;100460.50;5012462;28;20465;-78
2022/07/27 00:04:27;;;;;;;9.35;6.53;;;;;;;27.60;52.10;100459.28;5010908;28;20505;-78
2022/07/27 00:06:55;;;;;;;13.38;6.90;;;;;;;27.61;51.98;100469.94;5011925;28;20050;-79
2022/07/27 00:09:22;;;;;;;9.43;6.18;;;;;;;27.61;52.07;100475.41;5012292;28;20046;-79
2022/07/27 00:11:50;;;;;;;10.45;6.55;;;;;;;27.64;51.90;100495.94;5012268;28;20052;-78
2022/07/27 00:14:17;;;;;;;12.18;5.95;;;;;;;27.65;52.03;100497.59;5012191;28;20050;-78
2022/07/27 00:16:44;;;;;;;7.07;6.38;;;;;;;27.67;51.70;100511.00;5012672;28;20046;-78
2022/07/27 00:19:12;;;;;;;8.38;6.38;;;;;;;27.68;51.61;100515.41;5011981;28;20050;-78
2022/07/27 00:21:40;;;;;;;8.38;5.60;;;;;;;27.70;51.88;100516.06;5010185;28;20050;-77
2022/07/27 00:24:12;;;;;;;7.75;6.18;;;;;;;27.71;51.60;100515.88;5011827;28;20504;-77
2022/07/27 00:26:40;;;;;;;7.45;5.93;;;;;;;27.72;51.81;100531.16;5012094;28;20045;-77
2022/07/27 00:29:07;;;;;;;6.90;5.65;;;;;;;27.74;51.66;100536.41;5011650;28;20401;-78
2022/07/27 00:31:35;;;;;;;7.93;6.10;;;;;;;27.74;51.36;100544.56;5011787;28;20049;-77
2022/07/27 00:34:03;;;;;;;6.75;6.03;;;;;;;27.75;51.61;100543.53;5010874;28;20056;-78
2022/07/27 00:36:30;;;;;;;6.93;5.72;;;;;;;27.77;51.73;100538.75;5012437;28;20045;-78
2022/07/27 00:38:58;;;;;;;7.28;5.70;;;;;;;27.78;51.62;100545.88;5010131;28;20053;-78
2022/07/27 00:41:25;;;;;;;7.90;5.85;;;;;;;27.79;51.67;100558.44;5012125;28;20050;-78
2022/07/27 00:43:55;;;;;;;7.10;5.60;;;;;;;27.81;51.67;100583.56;5010621;28;20049;-77
2022/07/27 00:46:26;;;;;;;;;;;;;;;27.81;51.36;100599.91;5012536;28;20480;-77
2022/07/27 00:48:53;;;;;;;7.05;6.05;;;;;;;27.83;51.33;100633.16;5011135;28;19921;-77
2022/07/27 00:51:21;;;;;;;10.88;6.38;;;;;;;27.84;51.79;100653.94;5011772;28;20050;-78
2022/07/27 00:53:50;;;;;;;6.70;5.88;;;;;;;27.84;51.56;100679.25;5011544;28;20464;-78
2022/07/27 00:56:17;;;;;;;7.22;5.35;;;;;;;27.85;51.22;100710.84;5011966;28;20046;-77
2022/07/27 00:58:48;;;;;;;7.22;5.93;;;;;;;27.87;51.30;100728.84;5010610;28;20416;-78
2022/07/27 01:01:17;;;;;;;6.88;6.18;;;;;;;27.86;51.79;100695.38;5012274;28;20097;-77
2022/07/27 01:03:45;;;;;;;8.23;5.55;;;;;;;27.87;51.85;100690.78;5011230;28;20057;-77
2022/07/27 01:06:14;;;;;;;9.48;5.22;;;;;;;27.86;51.84;100695.38;5011572;28;20049;-78
2022/07/27 01:08:42;;;;;;;8.93;5.60;;;;;;;27.85;51.71;100693.69;5010937;28;20042;-78
2022/07/27 01:11:10;;;;;;;5.85;5.22;;;;;;;27.85;51.48;100678.22;5011549;28;20076;-78
2022/07/27 01:13:38;;;;;;;7.93;5.18;;;;;;;27.85;51.52;100661.88;5011901;28;20054;-78
2022/07/27 01:16:06;;;;;;;8.20;4.82;;;;;;;27.85;52.71;100648.28;5011026;28;20054;-78
2022/07/27 01:18:36;;;;;;;8.05;5.13;;;;;;;27.87;52.31;100647.25;5011655;28;20465;-78
2022/07/27 01:21:07;;;;;;;14.98;5.88;;;;;;;27.85;52.66;100644.72;5011467;28;20053;-78
2022/07/27 01:23:35;;;;;;;8.18;4.30;;;;;;;27.86;52.11;100657.28;5011368;28;20057;-78
2022/07/27 01:26:04;;;;;;;12.70;5.55;;;;;;;27.88;52.20;100665.28;5011248;28;20053;-78
2022/07/27 01:28:31;;;;;;;9.48;4.25;;;;;;;27.88;52.55;100659.81;5011194;28;20050;-78
2022/07/27 01:30:59;;;;;;;12.27;4.63;;;;;;;27.88;52.55;100676.16;5011294;28;20041;-78
2022/07/27 01:33:28;;;;;;;7.80;4.38;;;;;;;27.89;53.00;100670.50;5011046;28;20057;-78
2022/07/27 01:35:56;;;;;;;8.43;4.30;;;;;;;27.89;52.71;100675.94;5011246;28;20069;-79
2022/07/27 01:38:24;;;;;;;7.68;4.07;;;;;;;27.90;52.84;100679.50;5011112;28;20049;-79
2022/07/27 01:40:52;;;;;;;7.60;4.10;;;;;;;27.91;53.08;100652.09;5010765;28;20050;-77
2022/07/27 01:43:21;;;;;;;4.60;3.58;;;;;;;27.91;53.29;100652.09;5010547;28;20053;-78
2022/07/27 01:45:48;;;;;;;10.00;4.15;;;;;;;27.91;52.51;100660.25;5010624;28;20142;-78
2022/07/27 01:48:16;;;;;;;5.78;4.00;;;;;;;27.91;52.23;100682.03;5010794;28;20053;-78
2022/07/27 01:50:43;;;;;;;6.18;3.70;;;;;;;27.93;52.21;100701.75;5009827;28;20049;-78
2022/07/27 01:53:13;;;;;;;6.53;4.00;;;;;;;27.94;52.22;100708.84;5009266;28;20061;-78
2022/07/27 01:55:41;;;;;;;8.20;4.57;;;;;;;27.95;52.19;100710.53;5010287;28;20050;-78
2022/07/27 01:58:08;;;;;;;5.13;3.95;;;;;;;27.96;52.55;100708.69;5010588;28;20504;-78
2022/07/27 02:00:37;;;;;;;6.72;3.78;;;;;;;27.97;52.35;100694.03;5010531;28;20050;-77
2022/07/27 02:03:06;;;;;;;6.00;3.90;;;;;;;27.97;53.12;100697.59;5010407;28;20046;-77
2022/07/27 02:05:34;;;;;;;5.85;3.67;;;;;;;27.98;52.63;100691.09;5010689;28;20401;-78
2022/07/27 02:08:03;;;;;;;5.47;3.85;;;;;;;27.99;52.82;100676.47;5009092;28;20486;-78
2022/07/27 02:10:31;;;;;;;6.22;3.90;;;;;;;28.00;53.17;100690.94;5010427;28;20443;-77
2022/07/27 02:12:58;;;;;;;6.13;3.90;;;;;;;27.99;53.39;100684.63;5011013;28;20042;-78
2022/07/27 02:15:28;;;;;;;4.38;3.95;;;;;;;28.01;52.74;100676.28;5010321;28;20046;-78
2022/07/27 02:18:10;;;;;;;6.40;3.50;;;;;;;28.02;53.13;100688.84;5010830;28;20077;-78
2022/07/27 02:20:57;;;;;;;6.25;4.05;;;;;;;28.02;53.13;100718.78;5010675;28;20378;-78
2022/07/27 02:23:25;;;;;;;7.18;4.45;;;;;;;28.02;53.25;100726.94;5010356;28;20046;-78
2022/07/27 02:25:52;;;;;;;4.93;3.78;;;;;;;28.02;53.15;100733.22;5010114;28;20046;-77
2022/07/27 02:28:20;;;;;;;4.25;3.50;;;;;;;28.04;53.17;100727.63;5010244;28;20053;-78
2022/07/27 02:30:48;;;;;;;5.95;4.47;;;;;;;28.02;53.15;100730.50;5009822;28;20042;-78
2022/07/27 02:33:15;;;;;;;6.07;4.10;;;;;;;28.04;52.95;100723.00;5009847;28;20052;-78
2022/07/27 02:35:43;;;;;;;5.05;4.07;;;;;;;28.05;53.02;100721.97;5008619;28;20045;-78
2022/07/27 02:38:10;;;;;;;4.47;3.67;;;;;;;28.05;53.10;100708.38;5010208;28;20050;-78
2022/07/27 02:40:38;;;;;;;7.72;3.83;;;;;;;28.06;52.94;100711.91;5010302;28;20069;-78
2022/07/27 02:43:05;;;;;;;6.72;3.83;;;;;;;28.07;53.10;100710.88;5009988;28;20053;-78
2022/07/27 02:45:32;;;;;;;6.15;3.75;;;;;;;28.07;52.73;100711.72;5009733;28;20049;-77
2022/07/27 02:48:00;;;;;;;4.78;4.00;;;;;;;28.08;53.07;100707.16;5009790;28;20050;-77
2022/07/27 02:50:27;;;;;;;5.43;3.50;;;;;;;28.09;53.35;100712.38;5009937;28;20061;-77
2022/07/27 02:52:55;;;;;;;5.18;4.10;;;;;;;28.10;52.93;100721.38;4992723;28;20524;-77
2022/07/27 02:55:23;;;;;;;4.90;3.58;;;;;;;28.09;53.24;100706.09;5009983;28;20041;-78
2022/07/27 02:57:50;;;;;;;4.40;3.47;;;;;;;28.10;53.45;100694.16;5012956;28;20054;-78
2022/07/27 03:00:17;;;;;;;6.70;3.75;;;;;;;28.12;52.97;100694.84;5013286;28;20050;-78
2022/07/27 03:02:48;;;;;;;4.45;3.55;;;;;;;28.12;52.85;100686.66;5013942;28;20053;-78
2022/07/27 03:05:16;;;;;;;5.38;4.07;;;;;;;28.13;53.42;100679.34;5011205;28;20489;-78
2022/07/27 03:07:43;;;;;;;5.78;4.05;;;;;;;28.13;53.12;100676.63;5011896;28;20513;-78
2022/07/27 03:10:11;;;;;;;6.60;3.05;;;;;;;28.12;53.54;100661.34;5012882;28;20061;-78
2022/07/27 03:12:38;;;;;;;5.18;3.60;;;;;;;28.11;53.78;100655.03;5013083;28;20046;-78
2022/07/27 03:15:06;;;;;;;6.30;3.78;;;;;;;28.11;54.23;100649.59;5013283;28;20049;-78
2022/07/27 03:17:34;;;;;;;5.10;3.97;;;;;;;28.07;53.91;100651.84;5012748;28;20501;-78
2022/07/27 03:20:01;;;;;;;4.10;3.70;;;;;;;28.06;54.31;100652.06;5013490;28;20046;-77
2022/07/27 03:22:31;;;;;;;7.38;4.55;;;;;;;28.05;53.96;100647.66;5011311;28;20058;-77
2022/07/27 03:24:59;;;;;;;6.13;4.43;;;;;;;28.05;53.50;100634.03;5013154;28;20425;-77
2022/07/27 03:27:28;;;;;;;5.20;3.95;;;;;;;28.05;53.88;100626.72;5011192;28;20053;-77
2022/07/27 03:29:55;;;;;;;8.27;4.65;;;;;;;28.05;53.67;100623.16;5012909;28;20050;-76
2022/07/27 03:32:23;;;;;;;5.95;4.50;;;;;;;28.05;53.82;100621.28;5012416;28;20050;-77
2022/07/27 03:34:50;;;;;;;6.72;4.28;;;;;;;28.06;53.73;100622.94;5013062;28;20057;-77
2022/07/27 03:37:18;;;;;;;4.85;3.65;;;;;;;28.07;53.40;100612.91;5013187;28;20050;-77
2022/07/27 03:39:46;;;;;;;6.25;4.50;;;;;;;28.07;53.58;100604.75;5013464;28;20049;-77
2022/07/27 03:42:13;;;;;;;5.15;4.25;;;;;;;28.08;53.83;100593.69;5012474;28;20050;-78
2022/07/27 03:44:41;;;;;;;5.80;4.57;;;;;;;28.08;54.03;100598.28;5012314;28;20046;-78
2022/07/27 03:47:08;;;;;;;5.10;4.07;;;;;;;28.06;53.76;100614.78;5012336;28;20045;-78
2022/07/27 03:49:36;;;;;;;4.47;3.88;;;;;;;28.07;53.89;100621.06;5012076;28;20049;-78
2022/07/27 03:52:03;;;;;;;5.40;4.13;;;;;;;28.06;53.35;100612.06;5012299;28;20393;-78
2022/07/27 03:54:30;;;;;;;4.88;3.80;;;;;;;28.07;53.83;100605.59;5012170;28;20046;-78
2022/07/27 03:56:58;;;;;;;4.78;3.60;;;;;;;28.07;53.53;100605.59;5010795;28;20082;-78
2022/07/27 03:59:25;;;;;;;4.05;3.40;;;;;;;28.08;53.76;100607.28;5011642;28;20053;-78
2022/07/27 04:01:53;;;;;;;5.85;4.07;;;;;;;28.06;53.77;100601.19;5012726;28;20046;-79
2022/07/27 04:04:21;;;;;;;5.32;3.95;;;;;;;28.07;53.61;100605.59;5012556;28;20050;-79
2022/07/27 04:06:48;;;;;;;4.88;4.38;;;;;;;28.06;53.73;100617.50;5012275;28;20068;-79
2022/07/27 04:09:15;;;;;;;4.90;4.03;;;;;;;28.07;53.36;100602.84;5010385;28;20065;-78
2022/07/27 04:11:46;;;;;;;4.03;3.63;;;;;;;28.07;54.04;100608.31;5011877;28;20394;-78
2022/07/27 04:14:18;;;;;;;5.20;3.85;;;;;;;28.07;53.88;100602.84;5012790;28;20064;-77
2022/07/27 04:16:46;;;;;;;4.97;3.92;;;;;;;28.07;53.68;100600.13;5012035;28;20487;-77
2022/07/27 04:19:13;;;;;;;4.85;4.03;;;;;;;28.06;54.18;100603.06;5011868;28;20401;-79
2022/07/27 04:21:42;;;;;;;6.90;4.00;;;;;;;28.05;53.82;100610.38;5012439;28;20493;-79
2022/07/27 04:24:09;;;;;;;5.57;3.97;;;;;;;28.06;54.20;100612.06;5011843;28;20042;-79
2022/07/27 04:26:36;;;;;;;5.00;3.83;;;;;;;28.07;54.32;100621.06;5012014;28;20187;-76
2022/07/27 04:29:04;;;;;;;4.38;3.95;;;;;;;28.06;54.68;100609.34;5012471;28;20050;-76
2022/07/27 04:31:31;;;;;;;4.78;3.88;;;;;;;28.06;54.37;100609.34;5012039;28;20052;-76
2022/07/27 04:33:59;;;;;;;4.43;3.70;;;;;;;28.06;54.45;100616.66;5011613;28;20046;-76
2022/07/27 04:36:26;;;;;;;4.78;3.63;;;;;;;28.06;54.82;100612.06;5011540;28;20050;-76
2022/07/27 04:38:53;;;;;;;4.38;3.85;;;;;;;28.06;54.51;100603.91;5011780;28;20501;-76
2022/07/27 04:41:21;;;;;;;5.32;3.78;;;;;;;28.05;54.75;100602.22;5011367;28;20042;-76
2022/07/27 04:43:57;;;;;;;4.95;3.65;;;;;;;28.04;54.30;100586.94;5011986;28;20054;-76
2022/07/27 04:46:28;;;;;;;6.90;3.88;;;;;;;28.03;54.71;100582.50;5012222;28;20042;-76
2022/07/27 04:48:56;;;;;;;4.05;3.47;;;;;;;28.04;54.29;100584.22;5011486;28;20061;-75
2022/07/27 04:51:24;;;;;;;5.38;4.15;;;;;;;28.04;54.43;100589.66;5011396;28;20049;-76
2022/07/27 04:53:51;;;;;;;4.63;3.60;;;;;;;28.04;54.57;100589.66;5011506;28;20355;-76
2022/07/27 04:56:25;;;;;;;5.45;3.90;;;;;;;28.05;54.46;100577.72;5011439;28;20049;-76
2022/07/27 04:58:54;;;;;;;3.72;3.42;;;;;;;28.04;54.48;100573.34;5011083;28;20489;-78
2022/07/27 05:01:22;;;;;;;3.80;3.40;;;;;;;28.04;54.31;100557.00;5011687;28;20385;-79
2022/07/27 05:03:50;;;;;;;4.70;3.65;;;;;;;28.04;54.56;100546.13;5011214;28;20115;-76
2022/07/27 05:06:18;;;;;;;4.47;3.80;;;;;;;28.05;54.68;100527.91;5011670;28;20038;-76
2022/07/27 05:08:45;;;;;;;4.50;3.90;;;;;;;28.05;54.97;100536.91;5011467;28;20042;-76
2022/07/27 05:11:13;;;;;;;4.93;4.35;;;;;;;28.05;54.92;100555.13;5011077;28;20060;-77
2022/07/27 05:13:40;;;;;;;5.05;4.47;;;;;;;28.04;54.67;100565.19;4994714;28;20050;-77
2022/07/27 05:16:09;;;;;;;4.90;4.30;;;;;;;28.04;55.06;100573.34;5012363;28;20054;-77
2022/07/27 05:18:37;;;;;;;6.05;4.70;;;;;;;28.03;54.97;100560.75;5011090;28;20077;-77
2022/07/27 05:21:07;;;;;;;6.10;4.43;;;;;;;28.04;55.09;100567.06;5011048;28;20053;-77
2022/07/27 05:23:35;;;;;;;5.50;4.10;;;;;;;28.04;55.08;100561.63;5011103;28;20060;-77
2022/07/27 05:26:02;;;;;;;5.47;4.00;;;;;;;28.05;55.41;100568.72;5010934;28;20060;-79
2022/07/27 05:28:30;;;;;;;4.65;4.00;;;;;;;28.06;55.29;100567.69;5011551;28;20049;-79
2022/07/27 05:30:57;;;;;;;5.80;4.03;;;;;;;28.05;55.73;100569.56;5011345;28;20050;-77
2022/07/27 05:33:24;;;;;;;5.28;4.30;;;;;;;28.05;55.83;100574.19;5011162;28;20049;-77
2022/07/27 05:35:53;;;;;;;4.90;4.40;;;;;;;28.03;55.09;100579.78;5011182;28;20053;-77
2022/07/27 05:38:21;;;;;;;5.43;4.35;;;;;;;28.03;55.25;100587.13;5011054;28;20049;-77
2022/07/27 05:40:48;;;;;;;6.10;4.40;;;;;;;28.03;54.69;100598.00;5011989;28;20049;-77
2022/07/27 05:43:15;;;;;;;6.32;4.75;;;;;;;28.02;54.80;100604.50;5011485;28;20037;-77
2022/07/27 05:45:43;;;;;;;5.35;3.97;;;;;;;28.02;54.82;100597.16;5010914;28;20054;-77
2022/07/27 05:48:11;;;;;;;5.35;4.25;;;;;;;28.00;54.35;100596.53;5011316;28;20050;-77
2022/07/27 05:50:38;;;;;;;6.72;4.30;;;;;;;27.99;54.31;100605.72;5010836;28;20061;-77
2022/07/27 05:53:06;;;;;;;5.05;4.35;;;;;;;27.99;54.22;100613.88;5010889;28;20519;-75
2022/07/27 05:55:33;;;;;;;4.97;4.47;;;;;;;27.99;54.58;100613.03;5009700;28;20056;-77
2022/07/27 05:58:01;;;;;;;5.93;5.13;;;;;;;27.97;54.42;100610.53;5009229;28;20054;-76
2022/07/27 06:00:28;;;;;;;5.18;4.68;;;;;;;27.96;54.27;100614.28;5011094;28;20054;-77
2022/07/27 06:02:55;;;;;;;7.97;4.88;;;;;;;27.96;54.68;100613.44;5011131;28;20050;-76
2022/07/27 06:05:23;;;;;;;6.55;5.13;;;;;;;27.95;54.31;100609.84;5010720;28;20046;-76
2022/07/27 06:07:59;;;;;;;6.20;5.07;;;;;;;27.86;54.90;100611.03;5009465;28;20044;-76
2022/07/27 06:10:29;;;;;;;7.85;5.47;;;;;;;27.77;55.01;100620.34;5010761;28;20382;-76
2022/07/27 06:12:57;;;;;;;7.35;4.82;;;;;;;27.71;55.54;100626.53;5011246;28;20389;-76
2022/07/27 06:15:25;;;;;;;7.32;5.28;;;;;;;27.66;55.64;100621.66;5008974;28;20058;-75
2022/07/27 06:17:52;;;;;;;7.50;5.38;;;;;;;27.61;55.44;100621.41;5010235;28;20200;-76
2022/07/27 06:20:22;;;;;;;5.82;4.95;;;;;;;27.55;55.38;100627.63;5010503;28;20050;-76
2022/07/27 06:23:02;;;;;;;7.57;5.32;;;;;;;27.48;56.11;100635.69;5009053;28;20050;-77
2022/07/27 06:25:35;;;;;;;5.78;4.07;;;;;;;27.48;55.84;100629.41;5011148;28;20049;-76
2022/07/27 06:28:04;;;;;;;8.90;4.43;;;;;;;27.50;56.08;100624.63;5011093;28;20042;-76
2022/07/27 06:30:32;;;;;;;5.20;4.47;;;;;;;27.53;56.25;100611.47;5010599;28;20046;-85
2022/07/27 06:33:03;;;;;;;8.02;3.90;;;;;;;27.58;56.16;100608.19;5012975;28;20437;-76
2022/07/27 06:35:32;;;;;;;4.72;3.58;;;;;;;27.63;56.11;100615.75;5014053;28;20652;-75
2022/07/27 06:38:01;;;;;;;9.45;4.70;;;;;;;27.67;55.62;100611.63;5013923;28;20479;-75
2022/07/27 06:40:28;;;;;;;6.88;4.18;;;;;;;27.70;55.46;100605.81;5013840;28;20057;-79
2022/07/27 06:42:57;;;;;;;4.80;3.55;;;;;;;27.75;55.37;100597.94;5012915;28;20050;-79
2022/07/27 06:45:25;;;;;;;6.88;4.43;;;;;;;27.79;55.31;100599.22;5013367;28;20050;-79
2022/07/27 06:47:53;;;;;;;5.47;3.50;;;;;;;27.82;55.20;100607.84;5012343;28;20485;-79
2022/07/27 06:50:21;;;;;;;5.55;4.10;;;;;;;27.85;54.72;100607.47;5012929;28;20417;-77
2022/07/27 06:52:49;;;;;;;5.05;3.75;;;;;;;27.88;54.74;100608.97;5012996;28;20057;-74
2022/07/27 06:55:16;;;;;;;8.88;4.03;;;;;;;27.91;54.84;100624.06;5012184;28;20061;-74
2022/07/27 06:57:45;;;;;;;6.57;3.60;;;;;;;27.93;54.81;100616.56;5013204;28;20053;-74
2022/07/27 07:00:13;;;;;;;7.80;4.05;;;;;;;27.93;54.73;100614.66;5013265;28;20053;-75
2022/07/27 07:02:55;;;;;;;6.70;3.75;;;;;;;27.92;54.88;100621.16;5013600;28;20061;-75
2022/07/27 07:05:23;;;;;;;4.20;3.38;;;;;;;27.91;54.53;100605.84;5013434;28;20056;-75
2022/07/27 07:07:51;;;;;;;7.10;3.88;;;;;;;27.91;54.48;100616.72;5011913;28;20042;-74
2022/07/27 07:10:19;;;;;;;5.03;3.78;;;;;;;27.90;53.21;100608.78;5013214;28;20061;-75
2022/07/27 07:12:54;;;;;;;5.78;4.05;;;;;;;27.84;53.28;100605.78;5013391;28;20053;-75
2022/07/27 07:15:24;;;;;;;5.47;3.90;;;;;;;27.80;53.66;100614.53;5013247;28;20053;-73
2022/07/27 07:17:53;;;;;;;4.55;3.75;;;;;;;27.77;53.94;100613.03;5012926;28;20042;-74
2022/07/27 07:20:20;;;;;;;6.03;4.40;;;;;;;27.74;54.40;100604.41;5012679;28;20056;-73
2022/07/27 07:22:48;;;;;;;4.93;4.10;;;;;;;27.73;54.45;100616.31;5012338;28;20057;-74
2022/07/27 07:25:15;;;;;;;4.70;3.40;;;;;;;27.72;54.62;100612.75;5012445;28;20401;-74
2022/07/27 07:27:43;;;;;;;5.05;4.35;;;;;;;27.71;53.92;100615.66;5012784;28;20448;-75
2022/07/27 07:30:11;;;;;;;5.25;4.10;;;;;;;27.69;53.46;100628.59;5013276;28;20046;-74
2022/07/27 07:32:38;;;;;;;4.47;3.70;;;;;;;27.65;53.88;100619.97;5045568;27;20053;-74
2022/07/27 07:35:06;;;;;;;5.55;3.60;;;;;;;27.66;53.81;100639.88;5012309;28;20129;-74
2022/07/27 07:37:34;;;;;;;5.03;3.53;;;;;;;27.67;54.06;100630.66;5010791;28;20061;-74
2022/07/27 07:40:01;;;;;;;4.57;3.70;;;;;;;27.69;54.58;100623.16;5013242;28;20053;-74
2022/07/27 07:42:49;;;;;;;4.55;3.58;;;;;;;27.71;53.60;100637.41;5012334;28;20453;-74
2022/07/27 07:45:17;;;;;;;4.03;3.58;;;;;;;27.69;54.06;100636.78;5012389;28;20404;-74
2022/07/27 07:47:44;;;;;;;4.72;3.70;;;;;;;27.69;53.85;100636.78;4994894;28;20054;-74
2022/07/27 07:50:13;;;;;;;5.13;3.78;;;;;;;27.69;53.50;100637.59;5012151;28;20408;-74
2022/07/27 07:52:41;;;;;;;5.13;3.45;;;;;;;27.70;53.38;100642.00;4995137;28;20064;-74
2022/07/27 07:55:09;;;;;;;4.25;3.63;;;;;;;27.71;53.21;100640.13;5011996;28;20050;-74
2022/07/27 07:57:38;;;;;;;4.18;3.42;;;;;;;27.70;53.02;100642.00;4995174;28;20053;-74
2022/07/27 08:00:08;;;;;;;4.40;3.08;;;;;;;27.71;52.88;100646.44;4995009;28;20523;-75
2022/07/27 08:02:45;;;;;;;5.22;4.22;;;;;;;27.69;52.68;100650.38;5010694;28;20049;-74
2022/07/27 08:05:14;;;;;;;4.50;3.47;;;;;;;27.67;52.39;100649.69;5011680;28;20061;-75
2022/07/27 08:07:43;;;;;;;11.68;3.65;;;;;;;27.61;52.66;100651.31;5010965;28;20076;-75
2022/07/27 08:10:13;;;;;;;7.07;3.88;;;;;;;27.60;52.34;100647.75;5010280;28;20520;-74
2022/07/27 08:12:43;;;;;;;5.75;3.83;;;;;;;27.59;53.51;100646.09;5011758;28;20408;-74
2022/07/27 08:15:12;;;;;;;4.05;3.30;;;;;;;27.57;53.65;100645.41;5012965;28;20050;-75
2022/07/27 08:17:41;;;;;;;4.43;3.72;;;;;;;27.55;52.90;100650.22;5011646;28;20046;-74
2022/07/27 08:20:10;;;;;;;4.72;3.58;;;;;;;27.51;52.53;100643.47;5010865;28;20049;-74
2022/07/27 08:22:39;;;;;;;4.22;3.35;;;;;;;27.49;51.67;100639.25;5011509;28;20377;-74
2022/07/27 08:25:08;;;;;;;5.00;3.70;;;;;;;27.46;50.88;100647.78;5011668;28;20563;-74
2022/07/27 08:27:36;;;;;;;4.53;3.55;;;;;;;27.43;51.05;100640.00;5011837;28;20478;-74
2022/07/27 08:30:09;;;;;;;4.93;3.70;;;;;;;27.42;51.26;100638.31;5011731;28;20049;-74
2022/07/27 08:32:57;;;;;;;4.47;3.60;;;;;;;27.41;51.80;100637.47;5009910;28;20127;-74
2022/07/27 08:35:24;;;;;;;5.18;3.25;;;;;;;27.44;51.46;100636.25;5011481;28;20046;-74
2022/07/27 08:37:53;;;;;;;4.03;3.40;;;;;;;27.45;51.87;100633.34;5011482;28;20400;-74
2022/07/27 08:40:20;;;;;;;7.97;4.03;;;;;;;27.47;52.43;100638.63;5012132;28;20046;-75
2022/07/27 08:43:09;;;;;;;6.45;3.65;;;;;;;27.48;52.62;100645.72;5010314;28;20057;-74
2022/07/27 08:45:37;;;;;;;5.97;4.45;;;;;;;27.47;53.08;100647.59;5009529;28;20061;-74
2022/07/27 08:48:05;;;;;;;5.90;4.13;;;;;;;27.46;52.93;100643.19;5011153;28;20038;-75
2022/07/27 08:50:34;;;;;;;6.20;3.97;;;;;;;27.44;53.18;100641.69;5011064;28;20061;-74
2022/07/27 08:53:04;;;;;;;5.38;4.30;;;;;;;27.44;52.77;100639.00;5009623;28;20145;-74
2022/07/27 08:55:40;;;;;;;4.63;3.92;;;;;;;27.42;53.26;100644.59;5010454;28;20053;-74
2022/07/27 08:58:09;;;;;;;5.18;3.72;;;;;;;27.41;52.89;100645.63;5011156;28;20046;-77
2022/07/27 09:00:40;;;;;;;6.85;4.35;;;;;;;27.40;52.92;100648.56;5010736;28;20064;-76
2022/07/27 09:03:11;;;;;;;4.97;3.72;;;;;;;27.41;53.10;100647.50;5009659;28;20417;-76
2022/07/27 09:05:49;;;;;;;4.93;3.53;;;;;;;27.43;52.64;100654.47;5011137;28;20061;-76
2022/07/27 09:08:26;;;;;;;4.05;3.38;;;;;;;27.47;52.85;100649.50;5011036;28;20065;-76
2022/07/27 09:10:58;;;;;;;4.95;4.03;;;;;;;27.52;52.97;100660.63;5011612;28;20054;-76
2022/07/27 09:14:30;;;;;;;6.38;3.97;;;;;;;27.57;52.98;100652.72;5011418;28;20037;-76
2022/07/27 09:16:58;;;;;;;7.18;3.63;;;;;;;27.60;52.58;100658.63;4991845;28;20042;-77
2022/07/27 09:19:59;;;;;;;4.63;3.47;;;;;;;27.65;52.66;100655.34;4991686;28;20073;-75
2022/07/27 09:22:43;;;;;;;5.32;3.75;;;;;;;27.68;52.87;100651.41;5009924;28;20121;-75
2022/07/27 09:25:14;;;;;;;6.05;4.30;;;;;;;27.70;53.00;100652.88;5011101;28;20060;-76
2022/07/27 09:27:44;;;;;;;4.45;3.70;;;;;;;27.73;53.49;100651.66;5010972;28;20524;-76
2022/07/27 09:30:14;;;;;;;5.10;3.88;;;;;;;27.73;53.13;100655.25;5010308;28;20050;-76
2022/07/27 09:33:03;;;;;;;4.43;3.60;;;;;;;27.74;53.34;100656.94;5011024;28;20489;-76
2022/07/27 09:35:33;;;;;;;4.20;3.75;;;;;;;27.76;53.28;100659.50;5003560;28;20050;-78
2022/07/27 09:38:23;;;;;;;6.05;3.97;;;;;;;27.78;52.70;100660.97;5010047;28;20045;-78
2022/07/27 09:41:01;;;;;;;4.82;3.75;;;;;;;27.80;52.80;100664.34;5010648;28;20489;-78
2022/07/27 09:43:32;;;;;;;5.28;4.35;;;;;;;27.78;52.44;100663.69;5009582;28;20050;-76
2022/07/27 09:46:32;;;;;;;3.97;3.55;;;;;;;27.78;52.30;100666.41;5010100;28;20401;-75
2022/07/27 09:49:01;;;;;;;4.97;4.00;;;;;;;27.78;52.86;100662.84;5010903;28;20053;-76
2022/07/27 09:51:29;;;;;;;5.07;3.70;;;;;;;27.77;52.77;100674.75;5010722;28;20072;-76
2022/07/27 09:54:16;;;;;;;4.20;3.53;;;;;;;27.76;52.96;100662.19;5009328;28;20058;-76
2022/07/27 09:56:44;;;;;;;6.35;4.30;;;;;;;27.76;52.95;100665.75;5009632;28;20056;-77
2022/07/27 09:59:18;;;;;;;6.43;3.92;;;;;;;27.77;52.47;100669.31;5010124;28;20034;-77
2022/07/27 10:01:45;;;;;;;4.82;3.83;;;;;;;27.75;52.93;100658.66;5010292;28;20408;-77
2022/07/27 10:04:23;;;;;;;4.53;3.55;;;;;;;27.77;52.75;100658.44;5010116;28;20050;-78
2022/07/27 10:06:52;;;;;;;4.47;3.53;;;;;;;27.78;52.53;100658.25;5013252;28;20049;-77
2022/07/27 10:09:30;;;;;;;6.18;4.72;;;;;;;27.80;53.03;100660.78;5011987;28;20058;-77
2022/07/27 10:11:58;;;;;;;4.82;4.32;;;;;;;27.78;52.53;100643.81;5013640;28;20049;-77
2022/07/27 10:14:26;;;;;;;4.85;4.35;;;;;;;27.76;53.30;100652.16;5013474;28;20050;-77
2022/07/27 10:16:54;;;;;;;6.53;4.20;;;;;;;27.75;53.23;100650.47;5013635;28;20053;-77
2022/07/27 10:19:32;;;;;;;4.93;4.05;;;;;;;27.75;52.67;100652.34;5013457;28;20056;-77
2022/07/27 10:22:00;;;;;;;5.55;3.75;;;;;;;27.75;52.87;100652.34;5012287;28;20072;-76
2022/07/27 10:24:36;;;;;;;5.93;3.97;;;;;;;27.76;52.64;100645.88;5014375;28;20057;-77
2022/07/27 10:27:18;;;;;;;4.00;3.47;;;;;;;27.78;52.89;100650.06;5013286;28;20057;-78
2022/07/27 10:29:50;;;;;;;4.43;3.72;;;;;;;27.81;52.59;100638.81;5013859;28;20473;-77
2022/07/27 10:32:30;;;;;;;4.57;3.73;;;;;;;27.84;52.13;100633.00;5012826;28;20052;-75
2022/07/27 10:34:59;;;;;;;4.78;4.00;;;;;;;27.88;52.12;100644.34;5013319;28;20291;-77
2022/07/27 10:37:29;;;;;;;3.70;3.38;;;;;;;27.90;51.98;100634.09;5013931;28;20061;-77
2022/07/27 10:42:47;;;;;;;4.10;3.63;;;;;;;27.94;51.85;100637.28;5013373;28;20412;-78
2022/07/27 10:45:21;;;;;;;4.28;3.30;;;;;;;27.95;52.28;100628.91;5013965;28;20049;-77
2022/07/27 10:47:51;;;;;;;4.80;3.30;;;;;;;27.95;51.64;100631.63;5012125;28;20046;-77
2022/07/27 10:50:18;;;;;;;5.80;3.67;;;;;;;27.95;51.41;100633.50;5013630;28;20512;-77
2022/07/27 10:52:57;;;;;;;5.78;3.53;;;;;;;27.92;50.98;100632.03;5013406;28;20060;-77
2022/07/27 10:55:36;;;;;;;4.75;3.63;;;;;;;27.92;51.19;100626.59;5013275;28;20423;-77
2022/07/27 10:58:13;;;;;;;4.10;3.42;;;;;;;27.91;51.32;100624.06;5012784;28;20052;-77
2022/07/27 11:00:49;;;;;;;4.57;3.35;;;;;;;27.91;51.54;100622.16;5013237;28;20069;-77
2022/07/27 11:03:32;;;;;;;4.55;3.70;;;;;;;27.91;51.44;100624.88;5012956;28;20064;-76
2022/07/27 11:06:19;;;;;;;4.30;3.67;;;;;;;27.91;51.47;100624.88;5012827;28;20045;-76
2022/07/27 11:09:07;;;;;;;5.00;3.97;;;;;;;27.92;51.28;100620.31;5013279;28;20038;-78
2022/07/27 11:11:55;;;;;;;4.35;3.50;;;;;;;27.92;51.58;100615.72;5012964;28;20042;-77
2022/07/27 11:14:26;;;;;;;5.35;3.75;;;;;;;27.93;51.25;100617.38;5013188;28;20053;-79
2022/07/27 11:16:59;;;;;;;4.93;4.32;;;;;;;27.94;52.08;100619.06;5011636;28;20050;-79
2022/07/27 11:19:57;;;;;;;4.93;3.70;;;;;;;27.93;52.00;100614.66;5011941;28;20065;-80
2022/07/27 11:22:35;;;;;;;4.38;3.95;;;;;;;27.95;51.95;100620.75;5011751;28;20421;-76
2022/07/27 11:25:23;;;;;;;6.05;4.07;;;;;;;27.95;51.83;100611.75;5012577;28;20046;-76
2022/07/27 11:27:51;;;;;;;3.88;3.47;;;;;;;27.95;52.34;100607.13;5012445;28;20438;-76
2022/07/27 11:30:24;;;;;;;5.25;4.10;;;;;;;27.96;52.39;100600.69;5011117;28;20042;-76
2022/07/27 11:32:52;;;;;;;4.45;3.88;;;;;;;27.97;52.63;100607.81;5012039;28;20053;-77
2022/07/27 11:35:20;;;;;;;5.13;4.07;;;;;;;27.98;52.86;100604.03;5012205;28;20045;-76
2022/07/27 11:38:17;;;;;;;5.53;3.53;;;;;;;28.00;52.31;100596.53;5012339;28;20054;-77
2022/07/27 11:40:46;;;;;;;4.00;3.60;;;;;;;28.02;52.15;100589.00;4999909;28;20069;-78
2022/07/27 11:43:37;;;;;;;5.30;3.80;;;;;;;28.03;52.23;100589.84;5012991;28;20050;-76